Time;durP1;ratioP1;P1;durP2;ratioP2;P2;SDS_P1;SDS_P2;PMS_P1;PMS_P2;Temp;Humidity;BMP_temperature;BMP_pressure;BME280_temperature;BME280_humidity;BME280_pressure;Samples;Min_cycle;Max_cycle;Signal;HPM_P1;HPM_P2
2022/07/29 00:01:19;;;;;;;4.07;1.40;;;;;;;;;;5274242;28;20263;-81
2022/07/29 00:03:51;;;;;;;11.10;1.77;;;;;;;;;;5293685;28;20282;-80
2022/07/29 00:06:22;;;;;;;3.50;1.20;;;;;;;;;;5292901;28;20028;-80
2022/07/29 00:08:53;;;;;;;4.83;1.50;;;;;;;;;;5294597;28;20275;-81
2022/07/29 00:11:24;;;;;;;4.87;1.47;;;;;;;;;;5310905;28;20370;-81
2022/07/29 00:13:55;;;;;;;3.77;1.50;;;;;;;;;;5303037;27;20034;-81
2022/07/29 00:16:26;;;;;;;5.23;1.57;;;;;;;;;;5300895;28;20037;-81
2022/07/29 00:18:58;;;;;;;3.83;1.37;;;;;;;;;;5279690;28;20775;-80
2022/07/29 00:21:29;;;;;;;4.43;1.20;;;;;;;;;;5288808;28;20276;-81
2022/07/29 00:24:00;;;;;;;2.92;1.70;;;;;;;;;;5286902;28;20028;-80
2022/07/29 00:26:32;;;;;;;2.75;1.50;;;;;;;;;;5284829;28;20155;-81
2022/07/29 00:29:04;;;;;;;3.85;1.65;;;;;;;;;;5288363;28;20024;-81
2022/07/29 00:31:35;;;;;;;3.38;1.40;;;;;;;;;;5282273;28;20471;-81
2022/07/29 00:35:43;;;;;;;2.73;1.23;;;;;;;;;;5289210;28;20051;-80
2022/07/29 00:36:57;;;;;;;4.93;1.30;;;;;;;;;;5283370;28;20264;-81
2022/07/29 00:39:29;;;;;;;5.87;1.53;;;;;;;;;;5277574;28;20083;-81
2022/07/29 00:42:02;;;;;;;5.18;1.45;;;;;;;;;;5269597;28;20064;-81
2022/07/29 00:44:37;;;;;;;2.88;1.10;;;;;;;;;;5286024;28;20059;-81
2022/07/29 00:47:09;;;;;;;2.50;1.35;;;;;;;;;;5284737;28;20039;-81
2022/07/29 00:49:41;;;;;;;5.38;1.50;;;;;;;;;;5287803;28;20041;-81
2022/07/29 00:52:12;;;;;;;3.97;1.42;;;;;;;;;;5283745;28;20036;-80
2022/07/29 00:54:43;;;;;;;3.05;1.52;;;;;;;;;;5290036;28;20032;-81
2022/07/29 00:57:15;;;;;;;4.47;1.70;;;;;;;;;;5277826;28;20032;-80
2022/07/29 00:59:46;;;;;;;3.30;1.40;;;;;;;;;;5292353;28;20275;-80
2022/07/29 01:02:17;;;;;;;7.75;1.50;;;;;;;;;;5287176;28;20085;-81
2022/07/29 01:04:48;;;;;;;5.73;1.77;;;;;;;;;;5289531;28;20035;-80
2022/07/29 01:07:19;;;;;;;2.78;1.80;;;;;;;;;;5277313;28;20305;-81
2022/07/29 01:09:52;;;;;;;3.50;1.30;;;;;;;;;;5277850;28;20021;-81
2022/07/29 01:12:25;;;;;;;6.15;1.98;;;;;;;;;;5281777;28;20075;-81
2022/07/29 01:14:56;;;;;;;5.03;1.60;;;;;;;;;;5286503;28;20493;-81
2022/07/29 01:17:38;;;;;;;3.95;1.70;;;;;;;;;;5286685;28;20040;-80
2022/07/29 01:20:13;;;;;;;7.13;1.70;;;;;;;;;;5281607;28;20063;-80
2022/07/29 01:23:03;;;;;;;9.27;1.80;;;;;;;;;;5287899;28;20032;-81
2022/07/29 01:25:53;;;;;;;6.82;1.95;;;;;;;;;;5286358;28;20102;-80
2022/07/29 01:29:00;;;;;;;5.95;1.95;;;;;;;;;;5287380;28;20493;-81
2022/07/29 01:31:33;;;;;;;2.55;1.52;;;;;;;;;;5218723;28;20041;-80
2022/07/29 01:34:05;;;;;;;5.90;2.03;;;;;;;;;;5280177;28;20043;-81
2022/07/29 01:36:42;;;;;;;6.70;2.20;;;;;;;;;;5272902;28;20037;-81
2022/07/29 01:39:16;;;;;;;2.83;1.85;;;;;;;;;;5279563;28;20037;-80
2022/07/29 01:41:50;;;;;;;4.05;1.73;;;;;;;;;;5268171;28;20506;-80
2022/07/29 01:44:32;;;;;;;5.15;1.67;;;;;;;;;;5290677;28;20033;-81
2022/07/29 01:47:15;;;;;;;4.20;2.20;;;;;;;;;;5285427;28;20033;-80
2022/07/29 01:49:50;;;;;;;4.75;1.50;;;;;;;;;;5267983;28;20025;-80
2022/07/29 01:52:25;;;;;;;4.28;1.80;;;;;;;;;;5281665;28;20099;-81
2022/07/29 01:54:58;;;;;;;8.18;1.92;;;;;;;;;;5289190;28;20104;-80
2022/07/29 01:57:30;;;;;;;3.60;2.20;;;;;;;;;;5290152;28;20044;-80
2022/07/29 02:00:04;;;;;;;6.43;1.90;;;;;;;;;;5291791;28;20037;-80
2022/07/29 02:02:37;;;;;;;4.55;2.05;;;;;;;;;;5297544;28;20028;-80
2022/07/29 02:05:10;;;;;;;3.53;1.77;;;;;;;;;;5290445;28;20388;-80
2022/07/29 02:07:42;;;;;;;5.90;1.95;;;;;;;;;;5290112;28;20465;-80
2022/07/29 02:10:14;;;;;;;4.00;1.98;;;;;;;;;;5290606;28;20086;-80
2022/07/29 02:12:46;;;;;;;4.03;1.95;;;;;;;;;;5288730;28;20029;-80
2022/07/29 02:15:17;;;;;;;5.70;1.98;;;;;;;;;;5292237;28;20134;-80
2022/07/29 02:17:51;;;;;;;3.95;1.83;;;;;;;;;;5284079;28;20025;-80
2022/07/29 02:20:24;;;;;;;5.55;1.85;;;;;;;;;;5293510;28;20116;-80
2022/07/29 02:22:57;;;;;;;6.05;1.83;;;;;;;;;;5288074;28;20017;-80
2022/07/29 02:25:28;;;;;;;5.32;2.47;;;;;;;;;;5291012;28;20044;-80
2022/07/29 02:28:01;;;;;;;3.80;1.70;;;;;;;;;;5271949;28;20025;-80
2022/07/29 02:30:32;;;;;;;6.03;1.80;;;;;;;;;;5297688;28;20033;-80
2022/07/29 02:33:04;;;;;;;4.63;1.90;;;;;;;;;;5284826;28;20025;-80
2022/07/29 02:35:36;;;;;;;4.85;2.30;;;;;;;;;;5289959;28;20028;-80
2022/07/29 02:41:00;;;;;;;5.60;2.90;;;;;;;;;;5287147;28;20493;-80
2022/07/29 02:43:31;;;;;;;4.38;1.90;;;;;;;;;;5277536;28;20024;-80
2022/07/29 02:46:04;;;;;;;3.25;1.83;;;;;;;;;;5287185;28;20036;-80
2022/07/29 02:48:37;;;;;;;6.00;2.08;;;;;;;;;;5289299;28;20473;-80
2022/07/29 02:51:11;;;;;;;4.18;2.20;;;;;;;;;;5288456;28;20048;-80
2022/07/29 02:53:44;;;;;;;2.95;2.03;;;;;;;;;;5267513;28;20124;-80
2022/07/29 02:56:17;;;;;;;5.07;2.20;;;;;;;;;;5272574;28;20112;-81
2022/07/29 02:58:53;;;;;;;5.70;2.33;;;;;;;;;;5291318;28;20037;-81
2022/07/29 03:01:25;;;;;;;7.45;2.05;;;;;;;;;;5294180;28;20111;-81
2022/07/29 03:03:59;;;;;;;2.92;1.98;;;;;;;;;;5272388;28;20052;-81
2022/07/29 03:06:32;;;;;;;3.00;2.15;;;;;;;;;;5284447;28;20033;-81
2022/07/29 03:09:04;;;;;;;4.82;2.20;;;;;;;;;;5269453;28;20025;-81
2022/07/29 03:11:36;;;;;;;5.68;2.17;;;;;;;;;;5285304;28;20468;-80
2022/07/29 03:14:07;;;;;;;5.50;2.20;;;;;;;;;;5273098;28;20028;-81
2022/07/29 03:16:39;;;;;;;5.85;2.30;;;;;;;;;;5286159;28;20500;-81
2022/07/29 03:19:10;;;;;;;5.53;2.35;;;;;;;;;;5285466;28;20454;-80
2022/07/29 03:21:41;;;;;;;7.05;2.25;;;;;;;;;;5279844;28;20029;-80
2022/07/29 03:24:31;;;;;;;5.15;2.28;;;;;;;;;;5286885;28;20125;-80
2022/07/29 03:27:03;;;;;;;6.32;2.33;;;;;;;;;;5281355;28;20417;-82
2022/07/29 03:29:34;;;;;;;5.93;2.40;;;;;;;;;;5278233;28;20031;-81
2022/07/29 03:32:06;;;;;;;5.45;2.67;;;;;;;;;;5276223;28;20066;-81
2022/07/29 03:34:37;;;;;;;7.20;2.30;;;;;;;;;;5277781;28;20075;-82
2022/07/29 03:37:08;;;;;;;4.60;2.58;;;;;;;;;;5284830;28;20057;-82
2022/07/29 03:39:41;;;;;;;6.73;2.67;;;;;;;;;;5289506;28;20029;-81
2022/07/29 03:42:15;;;;;;;6.93;2.40;;;;;;;;;;5275187;28;20279;-81
2022/07/29 03:44:47;;;;;;;3.38;1.92;;;;;;;;;;5277634;28;20032;-81
2022/07/29 03:47:20;;;;;;;6.35;2.55;;;;;;;;;;5280205;28;20099;-80
2022/07/29 03:49:52;;;;;;;3.47;2.20;;;;;;;;;;5295563;28;20048;-81
2022/07/29 03:52:23;;;;;;;4.15;2.13;;;;;;;;;;5277638;28;20393;-81
2022/07/29 03:54:54;;;;;;;7.90;2.33;;;;;;;;;;5284838;28;20025;-80
2022/07/29 03:57:27;;;;;;;5.33;2.33;;;;;;;;;;5282702;28;20029;-80
2022/07/29 04:00:00;;;;;;;4.97;2.45;;;;;;;;;;5268520;28;20313;-81
2022/07/29 04:02:32;;;;;;;4.45;2.40;;;;;;;;;;5284472;28;20507;-81
2022/07/29 04:05:03;;;;;;;6.00;2.60;;;;;;;;;;5290163;28;20043;-80
2022/07/29 04:07:35;;;;;;;5.07;2.50;;;;;;;;;;5280538;28;20024;-81
2022/07/29 04:10:07;;;;;;;7.03;2.87;;;;;;;;;;5279208;28;20036;-81
2022/07/29 04:12:38;;;;;;;5.43;2.40;;;;;;;;;;5264578;28;20094;-80
2022/07/29 04:15:09;;;;;;;6.83;2.37;;;;;;;;;;5277027;28;20029;-81
2022/07/29 04:17:40;;;;;;;5.13;2.50;;;;;;;;;;5274302;28;20279;-81
2022/07/29 04:20:13;;;;;;;4.83;2.40;;;;;;;;;;5266246;28;20028;-81
2022/07/29 04:22:44;;;;;;;6.47;2.72;;;;;;;;;;5276787;28;20386;-81
2022/07/29 04:25:15;;;;;;;4.93;2.50;;;;;;;;;;5287383;28;20107;-81
2022/07/29 04:28:01;;;;;;;9.85;2.70;;;;;;;;;;5276325;28;20112;-81
2022/07/29 04:30:33;;;;;;;5.43;2.40;;;;;;;;;;5288302;28;20037;-81
2022/07/29 04:33:05;;;;;;;5.28;2.65;;;;;;;;;;5280994;28;20090;-79
2022/07/29 04:35:37;;;;;;;4.57;2.33;;;;;;;;;;5286635;28;20053;-80
2022/07/29 04:38:08;;;;;;;4.18;2.17;;;;;;;;;;5274990;28;20180;-80
2022/07/29 04:40:39;;;;;;;4.93;2.55;;;;;;;;;;5281641;28;20104;-81
2022/07/29 04:43:11;;;;;;;5.43;2.73;;;;;;;;;;5267688;28;20839;-82
2022/07/29 04:45:42;;;;;;;5.65;3.20;;;;;;;;;;5281922;28;20059;-81
2022/07/29 04:48:13;;;;;;;3.20;2.55;;;;;;;;;;5286488;28;20119;-82
2022/07/29 04:50:44;;;;;;;9.30;2.93;;;;;;;;;;5289670;28;20397;-82
2022/07/29 04:53:16;;;;;;;4.57;3.13;;;;;;;;;;5286412;28;20291;-80
2022/07/29 04:55:47;;;;;;;4.37;3.10;;;;;;;;;;5280961;28;20057;-82
2022/07/29 04:58:18;;;;;;;7.40;3.43;;;;;;;;;;5283729;28;20788;-82
2022/07/29 05:00:50;;;;;;;5.50;3.60;;;;;;;;;;5282226;28;20328;-81
2022/07/29 05:03:21;;;;;;;8.38;3.22;;;;;;;;;;5282351;28;20116;-82
2022/07/29 05:05:52;;;;;;;3.60;2.90;;;;;;;;;;5274555;28;20103;-82
2022/07/29 05:08:23;;;;;;;7.40;2.90;;;;;;;;;;5282319;28;20283;-80
2022/07/29 05:10:55;;;;;;;4.55;2.95;;;;;;;;;;5281390;28;20367;-80
2022/07/29 05:13:26;;;;;;;8.40;2.93;;;;;;;;;;5268476;28;20386;-80
2022/07/29 05:16:00;;;;;;;6.77;3.77;;;;;;;;;;5274929;28;20275;-80
2022/07/29 05:18:31;;;;;;;4.22;2.45;;;;;;;;;;5280199;28;20271;-80
2022/07/29 05:21:02;;;;;;;6.47;3.37;;;;;;;;;;5293260;28;20055;-80
2022/07/29 05:23:33;;;;;;;5.60;2.90;;;;;;;;;;5288193;28;20294;-80
2022/07/29 05:26:05;;;;;;;4.07;3.03;;;;;;;;;;5288514;28;20657;-82
2022/07/29 05:28:36;;;;;;;5.60;3.00;;;;;;;;;;5283035;28;20025;-81
2022/07/29 05:31:07;;;;;;;4.23;2.40;;;;;;;;;;5268403;28;20485;-81
2022/07/29 05:33:38;;;;;;;6.10;3.50;;;;;;;;;;5280172;28;20041;-82
2022/07/29 05:36:09;;;;;;;3.47;3.17;;;;;;;;;;5268593;28;20287;-83
2022/07/29 05:38:41;;;;;;;8.15;3.00;;;;;;;;;;5267312;28;20017;-81
2022/07/29 05:41:12;;;;;;;6.18;3.03;;;;;;;;;;5268902;28;20030;-83
2022/07/29 05:43:43;;;;;;;5.47;3.30;;;;;;;;;;5249083;28;20034;-81
2022/07/29 05:46:14;;;;;;;7.97;3.55;;;;;;;;;;5251475;28;20287;-81
2022/07/29 05:48:46;;;;;;;6.07;3.15;;;;;;;;;;5266763;28;20057;-81
2022/07/29 05:51:17;;;;;;;4.80;2.93;;;;;;;;;;5267734;28;20470;-81
2022/07/29 05:53:48;;;;;;;6.45;3.72;;;;;;;;;;5287356;28;20276;-81
2022/07/29 05:56:19;;;;;;;6.20;3.33;;;;;;;;;;5283259;28;20120;-82
2022/07/29 05:58:51;;;;;;;7.30;3.58;;;;;;;;;;5268512;28;20020;-81
2022/07/29 06:01:22;;;;;;;6.15;3.97;;;;;;;;;;5282837;28;20033;-81
2022/07/29 06:03:53;;;;;;;4.20;3.80;;;;;;;;;;5279591;28;20055;-81
2022/07/29 06:06:24;;;;;;;5.93;3.63;;;;;;;;;;5262323;28;20362;-81
2022/07/29 06:08:56;;;;;;;4.35;3.58;;;;;;;;;;5278425;28;20017;-82
2022/07/29 06:11:27;;;;;;;4.07;3.58;;;;;;;;;;5281907;28;20047;-81
2022/07/29 06:13:58;;;;;;;5.60;3.58;;;;;;;;;;5285917;28;20032;-81
2022/07/29 06:16:29;;;;;;;9.67;4.20;;;;;;;;;;5282278;28;20030;-81
2022/07/29 06:19:00;;;;;;;5.33;4.10;;;;;;;;;;5277291;28;20552;-81
2022/07/29 06:21:32;;;;;;;7.07;3.60;;;;;;;;;;5273181;28;20038;-81
2022/07/29 06:24:03;;;;;;;7.17;3.80;;;;;;;;;;5275096;28;20130;-82
2022/07/29 06:26:37;;;;;;;5.15;3.70;;;;;;;;;;5277095;28;20782;-82
2022/07/29 06:29:10;;;;;;;5.80;3.58;;;;;;;;;;5271906;28;20124;-82
2022/07/29 06:31:41;;;;;;;9.50;3.53;;;;;;;;;;5278152;28;20525;-82
2022/07/29 06:34:12;;;;;;;6.38;3.67;;;;;;;;;;5282559;28;20104;-81
2022/07/29 06:36:44;;;;;;;9.70;3.70;;;;;;;;;;5281935;28;20055;-81
2022/07/29 06:39:15;;;;;;;8.05;4.00;;;;;;;;;;5281951;28;20105;-82
2022/07/29 06:41:47;;;;;;;5.53;3.67;;;;;;;;;;5285898;28;20033;-82
2022/07/29 06:44:19;;;;;;;7.78;3.33;;;;;;;;;;5285599;28;20493;-82
2022/07/29 06:46:51;;;;;;;8.80;3.97;;;;;;;;;;5284899;28;20075;-82
2022/07/29 06:49:24;;;;;;;9.18;3.40;;;;;;;;;;5267510;28;20024;-82
2022/07/29 06:51:55;;;;;;;7.25;3.53;;;;;;;;;;5285196;28;20104;-82
2022/07/29 06:54:26;;;;;;;10.57;4.13;;;;;;;;;;5285584;28;20135;-82
2022/07/29 06:56:58;;;;;;;7.47;3.78;;;;;;;;;;5285324;28;20032;-82
2022/07/29 06:59:30;;;;;;;4.53;3.50;;;;;;;;;;5285068;28;20021;-82
2022/07/29 07:02:01;;;;;;;5.83;3.83;;;;;;;;;;5285125;28;20025;-82
2022/07/29 07:04:33;;;;;;;7.73;3.53;;;;;;;;;;5284845;28;20017;-82
2022/07/29 07:07:04;;;;;;;9.27;3.95;;;;;;;;;;5285468;28;20056;-82
2022/07/29 07:09:35;;;;;;;9.90;4.30;;;;;;;;;;5285002;28;20358;-82
2022/07/29 07:12:07;;;;;;;6.00;3.70;;;;;;;;;;5285075;28;20385;-82
2022/07/29 07:14:39;;;;;;;5.47;3.25;;;;;;;;;;5285200;28;20104;-82
2022/07/29 07:17:10;;;;;;;3.67;3.05;;;;;;;;;;5283689;28;20021;-82
2022/07/29 07:19:41;;;;;;;6.50;3.60;;;;;;;;;;5284571;28;20473;-82
2022/07/29 07:22:13;;;;;;;5.03;3.70;;;;;;;;;;5266249;28;20366;-82
2022/07/29 07:24:44;;;;;;;4.60;3.53;;;;;;;;;;5266515;28;20335;-82
2022/07/29 07:27:15;;;;;;;3.37;3.07;;;;;;;;;;5284533;28;20021;-82
2022/07/29 07:29:46;;;;;;;6.97;3.28;;;;;;;;;;5285109;28;20717;-82
2022/07/29 07:32:17;;;;;;;7.53;3.50;;;;;;;;;;5284665;28;20029;-82
2022/07/29 07:34:49;;;;;;;5.80;3.10;;;;;;;;;;5285146;28;20106;-82
2022/07/29 07:37:20;;;;;;;7.97;3.20;;;;;;;;;;5283123;28;20279;-82
2022/07/29 07:39:51;;;;;;;6.33;3.20;;;;;;;;;;5285137;28;20506;-82
2022/07/29 07:42:23;;;;;;;6.85;2.90;;;;;;;;;;5266608;28;20017;-81
2022/07/29 07:44:54;;;;;;;6.53;2.83;;;;;;;;;;5284914;28;20029;-82
2022/07/29 07:47:25;;;;;;;6.27;2.97;;;;;;;;;;5284387;28;20021;-83
2022/07/29 07:49:57;;;;;;;3.67;2.92;;;;;;;;;;5284784;28;20021;-82
2022/07/29 07:52:28;;;;;;;8.27;2.50;;;;;;;;;;5265106;28;20116;-82
2022/07/29 07:54:59;;;;;;;4.77;2.37;;;;;;;;;;5284973;28;20025;-81
2022/07/29 07:57:31;;;;;;;9.20;2.60;;;;;;;;;;5283524;28;20276;-81
2022/07/29 08:00:02;;;;;;;8.03;2.70;;;;;;;;;;5282970;28;20034;-82
2022/07/29 08:02:33;;;;;;;11.88;2.88;;;;;;;;;;5265466;28;20316;-82
2022/07/29 08:05:05;;;;;;;6.60;2.27;;;;;;;;;;5266036;28;20096;-82
2022/07/29 08:07:36;;;;;;;3.92;2.58;;;;;;;;;;5283978;28;20347;-82
2022/07/29 08:10:08;;;;;;;10.63;2.60;;;;;;;;;;5265894;28;20028;-82
2022/07/29 08:12:39;;;;;;;4.63;2.38;;;;;;;;;;5283932;28;20060;-82
2022/07/29 08:15:10;;;;;;;6.70;2.60;;;;;;;;;;5283249;28;20079;-82
2022/07/29 08:17:41;;;;;;;6.07;2.47;;;;;;;;;;5283124;28;20276;-82
2022/07/29 08:20:12;;;;;;;8.20;2.60;;;;;;;;;;5283561;28;20280;-82
2022/07/29 08:22:44;;;;;;;7.70;2.97;;;;;;;;;;5283977;28;20040;-82
2022/07/29 08:25:15;;;;;;;6.27;2.13;;;;;;;;;;5283297;28;20072;-82
2022/07/29 08:27:47;;;;;;;5.00;2.40;;;;;;;;;;5265380;28;20066;-82
2022/07/29 08:30:18;;;;;;;3.90;2.30;;;;;;;;;;5265445;28;20029;-82
2022/07/29 08:32:52;;;;;;;5.23;2.30;;;;;;;;;;5282941;28;20379;-82
2022/07/29 08:35:24;;;;;;;5.88;2.10;;;;;;;;;;5283755;28;20934;-82
2022/07/29 08:37:56;;;;;;;5.72;2.60;;;;;;;;;;5265653;28;20026;-82
2022/07/29 08:40:27;;;;;;;5.10;2.50;;;;;;;;;;5266846;28;20021;-82
2022/07/29 08:43:03;;;;;;;7.82;2.30;;;;;;;;;;5264368;28;20043;-82
2022/07/29 08:45:48;;;;;;;5.97;2.30;;;;;;;;;;5283288;28;20382;-82
2022/07/29 08:48:20;;;;;;;6.13;2.47;;;;;;;;;;5264741;28;20028;-81
2022/07/29 08:50:55;;;;;;;5.78;2.42;;;;;;;;;;5283855;28;20124;-82
2022/07/29 08:53:28;;;;;;;5.88;2.25;;;;;;;;;;5282783;28;20035;-82
2022/07/29 08:55:59;;;;;;;6.20;1.85;;;;;;;;;;5283462;28;20044;-81
2022/07/29 08:58:31;;;;;;;6.68;2.08;;;;;;;;;;5281712;28;20021;-82
2022/07/29 09:01:03;;;;;;;4.32;2.28;;;;;;;;;;5263630;28;20037;-82
2022/07/29 09:03:35;;;;;;;5.70;2.30;;;;;;;;;;5282166;28;20079;-82
2022/07/29 09:06:07;;;;;;;5.72;1.80;;;;;;;;;;5283259;28;20040;-82
2022/07/29 09:08:38;;;;;;;6.80;1.88;;;;;;;;;;5283173;28;20143;-82
2022/07/29 09:11:11;;;;;;;4.90;1.80;;;;;;;;;;5283561;28;20033;-81
2022/07/29 09:13:42;;;;;;;5.05;2.00;;;;;;;;;;5282722;28;20428;-82
2022/07/29 09:16:14;;;;;;;7.23;2.00;;;;;;;;;;5283428;28;20025;-82
2022/07/29 09:18:46;;;;;;;2.60;2.00;;;;;;;;;;5283371;28;20478;-82
2022/07/29 09:24:07;;;;;;;7.10;1.88;;;;;;;;;;5282900;28;20108;-81
2022/07/29 09:26:42;;;;;;;10.13;1.83;;;;;;;;;;5281167;28;20164;-81
2022/07/29 09:29:17;;;;;;;3.97;1.67;;;;;;;;;;5264822;28;20362;-81
2022/07/29 09:31:50;;;;;;;3.95;1.80;;;;;;;;;;5280402;28;20037;-81
2022/07/29 09:34:25;;;;;;;5.43;2.10;;;;;;;;;;5283246;28;20013;-81
2022/07/29 09:36:56;;;;;;;4.18;1.80;;;;;;;;;;5282750;28;20025;-81
2022/07/29 09:39:37;;;;;;;5.87;1.70;;;;;;;;;;5282836;28;20505;-81
2022/07/29 09:42:09;;;;;;;5.05;1.50;;;;;;;;;;5282986;28;20021;-81
2022/07/29 09:44:50;;;;;;;13.37;2.00;;;;;;;;;;5282298;28;20152;-81
2022/07/29 09:47:23;;;;;;;3.63;1.63;;;;;;;;;;5282159;28;20029;-81
2022/07/29 09:49:57;;;;;;;3.78;1.58;;;;;;;;;;5282911;28;20022;-81
2022/07/29 09:52:29;;;;;;;4.45;1.70;;;;;;;;;;5282704;28;20638;-81
2022/07/29 09:55:07;;;;;;;3.13;1.75;;;;;;;;;;5282664;28;20105;-81
2022/07/29 09:57:38;;;;;;;6.65;1.50;;;;;;;;;;5282833;28;20429;-81
2022/07/29 10:00:11;;;;;;;4.37;1.53;;;;;;;;;;5279729;28;20022;-81
2022/07/29 10:02:46;;;;;;;5.68;2.03;;;;;;;;;;5269188;28;20493;-81
2022/07/29 10:05:17;;;;;;;4.38;1.13;;;;;;;;;;5281860;28;20505;-81
2022/07/29 10:07:50;;;;;;;4.97;1.50;;;;;;;;;;5264329;28;20063;-81
2022/07/29 10:10:22;;;;;;;5.25;1.55;;;;;;;;;;5282419;28;20140;-81
2022/07/29 10:12:59;;;;;;;4.57;1.40;;;;;;;;;;5282522;28;20025;-80
2022/07/29 10:15:37;;;;;;;2.80;1.55;;;;;;;;;;5265888;28;20466;-81
2022/07/29 10:18:08;;;;;;;5.88;1.85;;;;;;;;;;5286141;28;20029;-81
2022/07/29 10:20:40;;;;;;;2.67;1.40;;;;;;;;;;5285310;28;20044;-81
2022/07/29 10:23:12;;;;;;;3.80;1.58;;;;;;;;;;5286388;28;20032;-81
2022/07/29 10:25:45;;;;;;;3.85;1.65;;;;;;;;;;5285985;28;20049;-81
2022/07/29 10:28:17;;;;;;;4.63;1.70;;;;;;;;;;5286156;28;20167;-81
2022/07/29 10:30:52;;;;;;;4.90;1.40;;;;;;;;;;5285969;28;20127;-81
2022/07/29 10:33:42;;;;;;;13.27;1.98;;;;;;;;;;5284539;28;20025;-81
2022/07/29 10:36:20;;;;;;;3.55;1.48;;;;;;;;;;5285393;28;20504;-81
2022/07/29 10:39:10;;;;;;;6.10;1.60;;;;;;;;;;5285628;28;20017;-81
2022/07/29 10:41:48;;;;;;;10.25;1.80;;;;;;;;;;5285373;28;20033;-81
2022/07/29 10:44:20;;;;;;;4.90;1.48;;;;;;;;;;5285775;28;20028;-82
2022/07/29 10:46:53;;;;;;;4.28;1.60;;;;;;;;;;5284916;28;20508;-81
2022/07/29 10:49:29;;;;;;;3.80;1.30;;;;;;;;;;5281016;28;20032;-82
2022/07/29 10:52:04;;;;;;;6.35;1.35;;;;;;;;;;5285580;28;20036;-82
2022/07/29 10:54:35;;;;;;;5.35;1.45;;;;;;;;;;5285423;28;20029;-82
2022/07/29 10:57:26;;;;;;;4.10;1.80;;;;;;;;;;5285531;28;20028;-82
2022/07/29 11:00:01;;;;;;;3.33;1.67;;;;;;;;;;5266895;28;20489;-82
2022/07/29 11:02:32;;;;;;;6.13;1.95;;;;;;;;;;5264981;28;20094;-82
2022/07/29 11:05:04;;;;;;;5.38;1.42;;;;;;;;;;5267640;28;20031;-82
2022/07/29 11:07:36;;;;;;;9.60;1.70;;;;;;;;;;5285550;28;20021;-82
2022/07/29 11:10:13;;;;;;;13.02;1.90;;;;;;;;;;5284990;28;20025;-82
2022/07/29 11:12:45;;;;;;;7.40;1.50;;;;;;;;;;5266691;28;20036;-82
2022/07/29 11:15:21;;;;;;;7.97;1.60;;;;;;;;;;5267154;28;20110;-82
2022/07/29 11:17:52;;;;;;;9.05;2.08;;;;;;;;;;5284464;28;20020;-82
2022/07/29 11:20:30;;;;;;;17.83;2.23;;;;;;;;;;5265720;28;20032;-82
2022/07/29 11:23:17;;;;;;;3.63;1.40;;;;;;;;;;5266414;28;20578;-82
2022/07/29 11:26:07;;;;;;;5.18;1.52;;;;;;;;;;5277987;28;20044;-82
2022/07/29 11:28:47;;;;;;;6.90;1.73;;;;;;;;;;5279020;28;20473;-82
2022/07/29 11:31:32;;;;;;;9.35;1.95;;;;;;;;;;5284807;28;20029;-82
2022/07/29 11:34:03;;;;;;;;;;;;;;;;;;5285505;28;20029;-82
2022/07/29 11:36:34;;;;;;;14.37;1.60;;;;;;;;;;5289583;28;20031;-82
2022/07/29 11:39:24;;;;;;;4.93;1.17;;;;;;;;;;5270511;28;20028;-81
2022/07/29 11:42:14;;;;;;;4.57;1.20;;;;;;;;;;5288394;28;20040;-81
2022/07/29 11:44:58;;;;;;;3.17;1.00;;;;;;;;;;5289743;28;20052;-81
2022/07/29 11:47:29;;;;;;;1.50;1.00;;;;;;;;;;5290701;28;20025;-81
2022/07/29 11:50:02;;;;;;;2.97;1.43;;;;;;;;;;5289801;28;20028;-82
2022/07/29 11:52:42;;;;;;;4.18;1.48;;;;;;;;;;5266046;28;20056;-82
2022/07/29 11:55:18;;;;;;;4.13;1.40;;;;;;;;;;5245852;28;20096;-81
2022/07/29 11:57:59;;;;;;;4.85;1.48;;;;;;;;;;5263663;28;20087;-82
2022/07/29 12:00:32;;;;;;;5.30;1.73;;;;;;;;;;5263692;28;20033;-82
2022/07/29 12:03:07;;;;;;;4.53;1.50;;;;;;;;;;5263476;28;20025;-82
2022/07/29 12:05:44;;;;;;;4.07;1.85;;;;;;;;;;5245081;28;20498;-82
2022/07/29 12:08:18;;;;;;;3.10;1.23;;;;;;;;;;5262808;28;20033;-82
2022/07/29 12:10:50;;;;;;;2.70;1.35;;;;;;;;;;5262705;28;20129;-82
2022/07/29 12:13:21;;;;;;;2.53;1.10;;;;;;;;;;5267896;28;20104;-82
2022/07/29 12:15:53;;;;;;;3.70;1.10;;;;;;;;;;5284118;28;20021;-82
2022/07/29 12:18:26;;;;;;;3.05;1.20;;;;;;;;;;5283577;28;20252;-82
2022/07/29 12:20:58;;;;;;;3.65;1.17;;;;;;;;;;5283786;28;20020;-82
2022/07/29 12:23:30;;;;;;;2.45;1.20;;;;;;;;;;5283433;28;20025;-82
2022/07/29 12:26:05;;;;;;;2.70;1.30;;;;;;;;;;5283636;28;20056;-82
2022/07/29 12:28:37;;;;;;;5.30;1.40;;;;;;;;;;5283376;28;20088;-82
2022/07/29 12:31:15;;;;;;;2.75;1.13;;;;;;;;;;5283812;28;20115;-82
2022/07/29 12:33:52;;;;;;;6.43;1.48;;;;;;;;;;5283483;28;20470;-82
2022/07/29 12:36:23;;;;;;;3.75;1.30;;;;;;;;;;5283583;28;20496;-82
2022/07/29 12:38:54;;;;;;;4.90;1.30;;;;;;;;;;5282654;28;20021;-82
2022/07/29 12:41:28;;;;;;;2.13;1.20;;;;;;;;;;5260788;28;20512;-82
2022/07/29 12:43:59;;;;;;;4.85;1.30;;;;;;;;;;5263049;28;20061;-82
2022/07/29 12:46:33;;;;;;;4.50;1.47;;;;;;;;;;5262602;28;20057;-82
2022/07/29 12:49:04;;;;;;;4.65;1.70;;;;;;;;;;5262669;28;20091;-81
2022/07/29 12:51:36;;;;;;;7.13;1.50;;;;;;;;;;5262526;28;20477;-82
2022/07/29 12:54:10;;;;;;;4.47;1.98;;;;;;;;;;5272215;28;20036;-82
2022/07/29 12:56:43;;;;;;;5.27;1.57;;;;;;;;;;5264824;28;20025;-82
2022/07/29 12:59:23;;;;;;;5.30;1.70;;;;;;;;;;5283395;28;20278;-82
2022/07/29 13:01:54;;;;;;;3.08;1.20;;;;;;;;;;5281520;28;20465;-82
2022/07/29 13:04:26;;;;;;;8.57;1.83;;;;;;;;;;5283645;28;20103;-82
2022/07/29 13:06:59;;;;;;;5.57;1.40;;;;;;;;;;5283555;28;20033;-82
2022/07/29 13:09:38;;;;;;;6.55;1.40;;;;;;;;;;5259561;28;20091;-82
2022/07/29 13:12:11;;;;;;;4.38;1.17;;;;;;;;;;5282098;28;20032;-82
2022/07/29 13:14:44;;;;;;;4.07;1.15;;;;;;;;;;5265053;28;20036;-83
2022/07/29 13:17:17;;;;;;;7.85;1.60;;;;;;;;;;5280399;28;20052;-82
2022/07/29 13:19:51;;;;;;;4.72;1.70;;;;;;;;;;5261355;28;20111;-82
2022/07/29 13:22:22;;;;;;;;;;;;;;;;;;5276486;28;20103;-82
2022/07/29 13:24:55;;;;;;;5.15;1.70;;;;;;;;;;5280042;28;20492;-83
2022/07/29 13:27:27;;;;;;;4.95;1.30;;;;;;;;;;5280757;28;20021;-83
2022/07/29 13:30:00;;;;;;;5.20;1.45;;;;;;;;;;5278735;28;20366;-83
2022/07/29 13:32:34;;;;;;;4.93;1.60;;;;;;;;;;5281655;28;20033;-83
2022/07/29 13:35:06;;;;;;;3.88;1.95;;;;;;;;;;5264812;28;20069;-82
2022/07/29 13:37:38;;;;;;;2.83;1.33;;;;;;;;;;5282413;28;20036;-83
2022/07/29 13:40:10;;;;;;;12.63;1.65;;;;;;;;;;5264974;28;20029;-83
2022/07/29 13:42:41;;;;;;;5.20;1.65;;;;;;;;;;5263263;28;20090;-83
2022/07/29 13:45:13;;;;;;;4.13;1.30;;;;;;;;;;5263833;28;20017;-83
2022/07/29 13:47:44;;;;;;;5.68;1.30;;;;;;;;;;5264043;28;20056;-83
2022/07/29 13:50:15;;;;;;;2.80;1.20;;;;;;;;;;5285570;28;20025;-83
2022/07/29 13:52:48;;;;;;;2.17;1.08;;;;;;;;;;5267882;28;20377;-83
2022/07/29 13:55:19;;;;;;;6.13;1.33;;;;;;;;;;5284652;28;20037;-83
2022/07/29 13:57:50;;;;;;;5.53;1.63;;;;;;;;;;5267439;28;20468;-83
2022/07/29 14:00:23;;;;;;;2.80;1.07;;;;;;;;;;5267867;28;20039;-83
2022/07/29 14:02:54;;;;;;;4.50;1.15;;;;;;;;;;5286453;28;20512;-83
2022/07/29 14:05:25;;;;;;;2.67;1.30;;;;;;;;;;5266177;28;20028;-83
2022/07/29 14:07:57;;;;;;;7.57;1.33;;;;;;;;;;5263533;28;20029;-83
2022/07/29 14:10:28;;;;;;;7.20;1.70;;;;;;;;;;5264972;28;20490;-83
2022/07/29 14:12:59;;;;;;;4.40;1.00;;;;;;;;;;5272728;28;20071;-83
2022/07/29 14:15:30;;;;;;;5.70;1.40;;;;;;;;;;5278904;28;20117;-83
2022/07/29 14:18:02;;;;;;;4.83;1.30;;;;;;;;;;5264862;28;20014;-83
2022/07/29 14:20:33;;;;;;;4.40;1.23;;;;;;;;;;5264880;28;20108;-83
2022/07/29 14:23:04;;;;;;;3.90;1.30;;;;;;;;;;5266425;28;20087;-83
2022/07/29 14:25:35;;;;;;;5.67;1.37;;;;;;;;;;5285377;28;20037;-83
2022/07/29 14:28:06;;;;;;;6.57;1.60;;;;;;;;;;5284480;28;20025;-83
2022/07/29 14:30:38;;;;;;;6.97;1.57;;;;;;;;;;5267488;28;20061;-83
2022/07/29 14:33:09;;;;;;;5.20;1.33;;;;;;;;;;5283535;28;20028;-83
2022/07/29 14:35:40;;;;;;;6.67;1.33;;;;;;;;;;5286011;28;20029;-83
2022/07/29 14:38:11;;;;;;;8.30;1.33;;;;;;;;;;5266337;28;20079;-82
2022/07/29 14:40:42;;;;;;;5.53;1.50;;;;;;;;;;5286036;28;20029;-82
2022/07/29 14:43:13;;;;;;;3.00;1.50;;;;;;;;;;5285296;28;20031;-82
2022/07/29 14:45:45;;;;;;;6.10;1.60;;;;;;;;;;5292186;28;20389;-82
2022/07/29 14:48:16;;;;;;;9.07;1.63;;;;;;;;;;5296116;28;20190;-81
2022/07/29 14:50:47;;;;;;;25.87;2.37;;;;;;;;;;5283920;28;20386;-82
2022/07/29 14:53:18;;;;;;;3.03;1.20;;;;;;;;;;5276893;28;20092;-81
2022/07/29 14:55:49;;;;;;;2.63;0.93;;;;;;;;;;5276178;28;20462;-81
2022/07/29 14:58:22;;;;;;;4.07;1.50;;;;;;;;;;5298691;28;20033;-81
2022/07/29 15:00:54;;;;;;;4.45;1.10;;;;;;;;;;5301640;28;20028;-82
2022/07/29 15:03:25;;;;;;;3.92;1.42;;;;;;;;;;5287271;28;20024;-81
2022/07/29 15:05:56;;;;;;;5.70;1.60;;;;;;;;;;5305723;28;20033;-81
2022/07/29 15:08:29;;;;;;;5.80;1.43;;;;;;;;;;5280869;28;20477;-82
2022/07/29 15:11:00;;;;;;;3.03;1.27;;;;;;;;;;5285959;28;20033;-82
2022/07/29 15:13:32;;;;;;;2.75;1.25;;;;;;;;;;5284993;28;20025;-82
2022/07/29 15:16:04;;;;;;;4.60;1.17;;;;;;;;;;5285653;28;20033;-82
2022/07/29 15:18:38;;;;;;;2.83;1.20;;;;;;;;;;5286101;28;20041;-82
2022/07/29 15:21:09;;;;;;;6.43;1.20;;;;;;;;;;5267302;28;20029;-83
2022/07/29 15:23:40;;;;;;;4.80;1.20;;;;;;;;;;5286126;28;20028;-83